createdAt,value
2023-04-11T00:00:00.913Z,9.82
2023-04-11T00:02:27.902Z,8.82
2023-04-11T00:04:55.050Z,9.25
2023-04-11T00:07:30.664Z,9.15
2023-04-11T00:10:03.306Z,9.30
2023-04-11T00:12:34.521Z,8.93
2023-04-11T00:15:01.317Z,8.18
2023-04-11T00:17:33.521Z,8.45
2023-04-11T00:20:08.197Z,9.55
2023-04-11T00:22:35.847Z,8.77
2023-04-11T00:25:02.928Z,8.50
2023-04-11T00:27:33.848Z,9.00
2023-04-11T00:30:08.191Z,9.02
2023-04-11T00:32:34.998Z,9.40
2023-04-11T00:35:04.994Z,7.57
2023-04-11T00:37:35.997Z,9.05
2023-04-11T00:40:07.810Z,7.20
2023-04-11T00:42:34.661Z,7.70
2023-04-11T00:45:04.569Z,6.72
2023-04-11T00:47:35.354Z,7.72
2023-04-11T00:50:05.981Z,7.70
2023-04-11T00:52:33.275Z,6.53
2023-04-11T00:55:03.566Z,8.35
2023-04-11T00:57:30.932Z,8.15
2023-04-11T01:00:01.552Z,8.10
2023-04-11T01:02:40.095Z,7.75
2023-04-11T01:05:08.260Z,7.60
2023-04-11T01:07:44.798Z,8.65
2023-04-11T01:10:18.087Z,9.02
2023-04-11T01:12:53.490Z,8.32
2023-04-11T01:15:24.865Z,9.23
2023-04-11T01:17:55.386Z,8.85
2023-04-11T01:20:24.934Z,8.75
2023-04-11T01:23:02.683Z,9.13
2023-04-11T01:25:35.776Z,8.50
2023-04-11T01:28:05.311Z,7.72
2023-04-11T01:30:34.659Z,8.00
2023-04-11T01:33:04.594Z,8.35
2023-04-11T01:35:34.832Z,8.30
2023-04-11T01:38:10.903Z,8.23
2023-04-11T01:40:57.107Z,8.45
2023-04-11T01:43:31.366Z,8.40
2023-04-11T01:48:25.848Z,7.40
2023-04-11T01:50:56.000Z,8.23
2023-04-11T01:53:24.680Z,11.70
2023-04-11T01:55:51.539Z,7.90
2023-04-11T01:58:18.873Z,7.65
2023-04-11T02:00:51.908Z,7.43
2023-04-11T02:03:21.035Z,8.60
2023-04-11T02:05:50.956Z,7.80
2023-04-11T02:08:22.786Z,7.43
2023-04-11T02:10:54.925Z,6.55
2023-04-11T02:13:24.377Z,7.32
2023-04-11T02:16:23.279Z,6.97
2023-04-11T02:18:59.926Z,6.65
2023-04-11T02:21:35.370Z,6.68
2023-04-11T02:24:04.600Z,7.75
2023-04-11T02:26:34.214Z,8.90
2023-04-11T02:29:12.625Z,9.23
2023-04-11T02:31:52.445Z,8.90
2023-04-11T02:34:31.061Z,8.07
2023-04-11T02:36:59.131Z,8.60
2023-04-11T02:39:26.348Z,7.90
2023-04-11T02:41:53.023Z,7.80
2023-04-11T02:44:22.739Z,8.15
2023-04-11T02:46:59.279Z,8.43
2023-04-11T02:49:26.813Z,7.40
2023-04-11T02:51:58.942Z,8.45
2023-04-11T02:54:35.300Z,8.05
2023-04-11T02:57:04.801Z,8.57
2023-04-11T02:59:33.732Z,6.50
2023-04-11T03:02:02.065Z,7.47
2023-04-11T03:04:29.224Z,6.82
2023-04-11T03:06:57.190Z,7.15
2023-04-11T03:09:23.953Z,7.13
2023-04-11T03:11:56.165Z,6.95
2023-04-11T03:14:25.345Z,8.02
2023-04-11T03:16:54.293Z,7.85
2023-04-11T03:19:21.212Z,7.88
2023-04-11T03:21:48.010Z,7.88
2023-04-11T03:24:14.825Z,7.75
2023-04-11T03:26:46.367Z,8.32
2023-04-11T03:29:21.269Z,8.23
2023-04-11T03:31:58.456Z,7.00
2023-04-11T03:34:29.973Z,7.40
2023-04-11T03:36:56.792Z,8.00
2023-04-11T03:39:24.132Z,7.68
2023-04-11T03:41:56.042Z,7.57
2023-04-11T03:44:25.820Z,10.65
2023-04-11T03:47:01.340Z,7.82
2023-04-11T03:49:28.240Z,8.30
2023-04-11T03:52:02.121Z,8.88
2023-04-11T03:54:32.854Z,9.52
2023-04-11T03:56:59.598Z,8.70
2023-04-11T03:59:26.292Z,9.23
2023-04-11T04:02:02.331Z,8.82
2023-04-11T04:04:33.376Z,8.63
2023-04-11T04:07:03.467Z,9.73
2023-04-11T04:09:30.181Z,9.43
2023-04-11T04:12:07.616Z,10.13
2023-04-11T04:14:34.396Z,9.90
2023-04-11T04:17:08.184Z,9.93
2023-04-11T04:19:41.984Z,9.85
2023-04-11T04:22:12.826Z,10.27
2023-04-11T04:24:48.949Z,9.70
2023-04-11T04:27:26.386Z,8.93
2023-04-11T04:30:04.251Z,9.55
2023-04-11T04:32:57.434Z,10.52
2023-04-11T04:35:27.423Z,10.40
2023-04-11T04:38:15.733Z,9.38
2023-04-11T04:41:02.882Z,8.45
2023-04-11T04:43:49.143Z,7.43
2023-04-11T04:46:19.302Z,8.85
2023-04-11T04:48:49.731Z,6.60
2023-04-11T04:51:19.086Z,4.88
2023-04-11T04:53:57.844Z,3.95
2023-04-11T04:56:30.592Z,3.25
2023-04-11T04:58:58.865Z,3.47
2023-04-11T05:01:26.918Z,2.72
2023-04-11T05:04:01.178Z,3.30
2023-04-11T06:07:28.475Z,5.22
2023-04-11T07:39:45.286Z,6.70
2023-04-11T08:47:46.194Z,5.32
2023-04-11T08:50:25.669Z,4.47
2023-04-11T12:47:49.940Z,4.70
2023-04-11T12:50:28.944Z,3.05
2023-04-11T12:52:56.490Z,3.10
2023-04-11T12:55:37.359Z,3.58
2023-04-11T12:58:11.663Z,4.97
2023-04-11T13:03:07.502Z,4.78
2023-04-11T13:05:34.783Z,5.10
2023-04-11T13:08:01.702Z,7.22
2023-04-11T13:10:36.002Z,5.10
2023-04-11T13:15:47.875Z,3.45
2023-04-11T13:18:14.666Z,5.40
2023-04-11T13:20:44.111Z,4.95
2023-04-11T13:23:16.651Z,4.45
2023-04-11T13:25:46.974Z,5.40
2023-04-11T13:28:13.608Z,5.07
2023-04-11T13:30:50.872Z,5.40
2023-04-11T13:33:17.729Z,4.97
2023-04-11T13:35:54.052Z,4.57
2023-04-11T13:38:36.129Z,3.70
2023-04-11T13:41:03.215Z,5.13
2023-04-11T13:43:34.704Z,4.38
2023-04-11T13:46:01.522Z,5.47
2023-04-11T13:48:31.395Z,3.75
2023-04-11T13:50:58.191Z,4.47
2023-04-11T13:53:25.249Z,4.45
2023-04-11T13:56:01.111Z,4.55
2023-04-11T13:58:42.299Z,4.38
2023-04-11T14:01:37.690Z,5.05
2023-04-11T14:04:09.900Z,4.90
2023-04-11T14:06:37.662Z,5.32
2023-04-11T14:09:10.763Z,4.88
2023-04-11T14:11:46.246Z,6.18
2023-04-11T14:14:13.092Z,5.45
2023-04-11T14:16:42.469Z,5.95
2023-04-11T14:19:14.940Z,5.93
2023-04-11T14:21:57.412Z,4.72
2023-04-11T14:24:26.655Z,6.22
2023-04-11T14:26:53.579Z,6.55
2023-04-11T14:29:23.868Z,5.55
2023-04-11T14:31:53.527Z,6.63
2023-04-11T14:34:21.024Z,5.03
2023-04-11T14:36:48.959Z,6.50
2023-04-11T14:39:16.060Z,6.28
2023-04-11T14:41:45.768Z,4.70
2023-04-11T14:44:16.670Z,4.97
2023-04-11T14:47:03.983Z,4.32
2023-04-11T14:49:31.337Z,3.83
2023-04-11T14:51:58.484Z,3.83
2023-04-11T14:54:48.334Z,3.90
2023-04-11T14:57:22.550Z,3.97
2023-04-11T14:59:50.098Z,3.20
2023-04-11T15:02:18.282Z,3.30
2023-04-11T15:04:48.191Z,3.33
2023-04-11T15:07:15.109Z,3.40
2023-04-11T15:26:51.486Z,2.78
2023-04-11T16:05:10.179Z,3.95
2023-04-11T16:15:51.743Z,4.47
2023-04-11T16:23:54.580Z,4.10
2023-04-11T17:35:29.313Z,5.38
2023-04-11T19:21:35.917Z,11.57
2023-04-11T19:24:02.687Z,12.30
2023-04-11T19:29:10.347Z,12.18
2023-04-11T20:02:26.942Z,8.52
2023-04-11T20:46:54.406Z,11.90
2023-04-11T21:41:15.685Z,8.95
2023-04-11T21:43:42.586Z,8.55
2023-04-11T21:46:09.451Z,7.82
2023-04-11T21:48:44.351Z,10.50
2023-04-11T21:51:16.804Z,9.68
2023-04-11T21:53:43.540Z,9.52
2023-04-11T21:56:13.801Z,8.40
2023-04-11T21:58:43.549Z,8.40
2023-04-11T22:01:27.059Z,9.43
2023-04-11T22:03:56.653Z,9.68
2023-04-11T22:06:46.145Z,8.05
2023-04-11T22:09:25.715Z,8.85
2023-04-11T22:11:55.558Z,10.07
2023-04-11T22:14:29.413Z,9.75
2023-04-11T22:17:03.400Z,8.15
2023-04-11T22:19:33.777Z,8.25
2023-04-11T22:22:03.196Z,9.63
2023-04-11T22:24:32.596Z,9.25
2023-04-11T22:27:05.195Z,9.13
2023-04-11T22:29:35.046Z,9.43
2023-04-11T22:32:03.828Z,11.45
2023-04-11T22:34:33.535Z,13.23
2023-04-11T22:37:10.902Z,12.10
2023-04-11T22:39:48.234Z,10.60
2023-04-11T22:42:17.923Z,11.27
2023-04-11T22:44:44.613Z,10.00
2023-04-11T22:47:16.179Z,10.02
2023-04-11T22:49:45.844Z,11.18
2023-04-11T22:52:26.339Z,11.75
2023-04-11T22:54:55.745Z,11.75
2023-04-11T22:57:37.246Z,11.57
2023-04-11T23:00:07.383Z,12.30
2023-04-11T23:05:21.292Z,14.57
2023-04-11T23:07:51.718Z,15.65
2023-04-11T23:10:19.215Z,13.30
2023-04-11T23:12:49.441Z,17.40
2023-04-11T23:15:20.418Z,15.10
2023-04-11T23:17:47.134Z,15.90
2023-04-11T23:20:14.282Z,15.95
2023-04-11T23:22:50.472Z,14.02
2023-04-11T23:25:19.956Z,15.93
2023-04-11T23:27:47.530Z,15.13
2023-04-11T23:30:17.531Z,14.07
2023-04-11T23:32:44.372Z,15.15
2023-04-11T23:35:11.764Z,13.30
2023-04-11T23:37:38.541Z,13.63
2023-04-11T23:40:10.960Z,14.40
2023-04-11T23:42:42.569Z,14.65
2023-04-11T23:45:11.793Z,14.13
2023-04-11T23:47:49.584Z,13.15
2023-04-11T23:50:17.808Z,14.57
2023-04-11T23:52:45.452Z,14.88
2023-04-11T23:55:13.662Z,13.75
2023-04-11T23:57:47.724Z,15.18
